Time;durP1;ratioP1;P1;durP2;ratioP2;P2;SDS_P1;SDS_P2;PMS_P1;PMS_P2;Temp;Humidity;BMP_temperature;BMP_pressure;BME280_temperature;BME280_humidity;BME280_pressure;Samples;Min_cycle;Max_cycle;Signal;HPM_P1;HPM_P2
2021/09/06 00:01:22;;;;;;;11.50;10.57;;;;;;;28.89;62.97;100963.03;5075803;27;66550;-37
2021/09/06 00:03:54;;;;;;;11.35;10.50;;;;;;;28.94;63.17;100963.22;5074100;27;70757;-38
2021/09/06 00:06:27;;;;;;;18.00;11.88;;;;;;;28.96;63.90;100955.75;5067619;27;65542;-37
2021/09/06 00:08:58;;;;;;;11.10;10.18;;;;;;;29.00;64.32;100966.13;5074069;27;69171;-38
2021/09/06 00:11:30;;;;;;;14.55;10.07;;;;;;;29.02;64.72;100964.06;5066232;27;66446;-38
2021/09/06 00:14:02;;;;;;;12.67;10.97;;;;;;;29.03;64.58;100971.13;5072685;27;70164;-37
2021/09/06 00:16:34;;;;;;;23.77;11.20;;;;;;;29.17;64.53;100979.09;5087035;27;65465;-40
2021/09/06 00:19:06;;;;;;;10.48;9.60;;;;;;;29.16;65.73;100979.28;5076527;27;70884;-38
2021/09/06 00:21:38;;;;;;;10.90;9.60;;;;;;;29.18;65.02;100975.34;5067972;27;65968;-38
2021/09/06 00:24:11;;;;;;;13.48;10.52;;;;;;;29.19;65.32;100981.56;5073873;27;70213;-38
2021/09/06 00:26:44;;;;;;;12.13;9.93;;;;;;;29.24;64.91;100975.56;5073774;27;65303;-39
2021/09/06 00:29:19;;;;;;;11.40;10.48;;;;;;;29.30;65.80;100983.66;5082415;27;69327;-38
2021/09/06 00:31:53;;;;;;;14.48;10.07;;;;;;;29.35;65.63;100985.75;5081812;27;66785;-38
2021/09/06 00:34:53;;;;;;;10.00;9.10;;;;;;;29.11;66.45;100957.47;5076805;27;70330;-38
2021/09/06 00:37:32;;;;;;;15.57;9.63;;;;;;;29.06;66.29;100939.19;5081135;27;66564;-38
2021/09/06 00:40:11;;;;;;;12.60;10.00;;;;;;;29.39;66.37;100997.78;5090315;27;70880;-39
2021/09/06 00:42:49;;;;;;;17.35;10.40;;;;;;;29.39;67.06;100987.84;5081828;27;66253;-37
2021/09/06 00:45:26;;;;;;;10.55;9.65;;;;;;;29.44;67.06;100989.88;5084713;27;69467;-39
2021/09/06 00:48:00;;;;;;;12.18;8.90;;;;;;;29.49;66.48;100991.97;5075074;27;65589;-39
2021/09/06 00:50:42;;;;;;;15.55;9.38;;;;;;;29.49;66.29;101000.09;5066656;27;70311;-39
2021/09/06 00:53:43;;;;;;;9.60;8.40;;;;;;;29.48;67.22;101001.16;5076362;27;65952;-39
2021/09/06 00:56:18;;;;;;;12.18;7.60;;;;;;;29.51;66.59;101000.72;5071964;27;70224;-39
2021/09/06 00:58:57;;;;;;;8.90;8.00;;;;;;;29.44;66.58;100979.09;5058263;28;67646;-39
2021/09/06 01:02:13;;;;;;;7.85;7.25;;;;;;;29.55;66.75;100996.53;5076468;27;70557;-40
2021/09/06 01:05:12;;;;;;;8.00;7.20;;;;;;;29.55;67.15;100991.13;5075311;27;66806;-39
2021/09/06 01:08:14;;;;;;;7.97;6.75;;;;;;;29.59;66.49;100997.81;5046257;27;69215;-39
2021/09/06 01:11:16;;;;;;;6.90;6.25;;;;;;;29.60;67.38;100999.47;5074538;27;65708;-38
2021/09/06 01:14:21;;;;;;;6.45;5.95;;;;;;;29.65;66.46;101002.41;5064159;27;70058;-38
2021/09/06 01:17:03;;;;;;;6.03;5.53;;;;;;;29.71;66.06;100996.16;5026229;28;65167;-37
2021/09/06 01:19:56;;;;;;;5.13;4.70;;;;;;;29.60;66.19;100994.88;5065644;27;70895;-38
2021/09/06 01:22:58;;;;;;;6.05;5.50;;;;;;;29.57;66.47;101002.59;5075170;27;67582;-37
2021/09/06 01:26:01;;;;;;;7.03;5.70;;;;;;;29.53;67.20;100994.06;5055313;28;69325;-38
2021/09/06 01:28:46;;;;;;;5.45;5.05;;;;;;;29.59;66.77;100997.81;5073792;27;66319;-38
2021/09/06 01:31:38;;;;;;;4.68;4.28;;;;;;;29.59;67.50;100995.09;5068431;27;69396;-38
2021/09/06 01:34:22;;;;;;;5.75;5.32;;;;;;;29.44;66.81;100952.06;5059075;27;66342;-37
2021/09/06 01:37:48;;;;;;;5.05;3.70;;;;;;;29.68;65.83;101001.16;5073441;27;69618;-38
2021/09/06 01:40:33;;;;;;;5.38;4.35;;;;;;;29.62;66.61;100987.41;5073935;27;65569;-38
2021/09/06 01:43:23;;;;;;;6.93;4.82;;;;;;;29.67;66.87;100988.66;5068441;27;69969;-38
2021/09/06 01:46:07;;;;;;;4.70;4.30;;;;;;;29.72;66.41;100976.19;5073628;27;65544;-37
2021/09/06 01:48:54;;;;;;;4.57;4.18;;;;;;;29.77;66.30;100991.78;5075401;27;70230;-37
2021/09/06 01:51:40;;;;;;;4.00;3.65;;;;;;;29.77;66.98;101000.72;5074089;27;65672;-38
2021/09/06 01:54:21;;;;;;;4.40;4.10;;;;;;;29.77;66.54;101000.72;5055006;27;70794;-38
2021/09/06 01:56:58;;;;;;;5.72;5.05;;;;;;;29.70;66.41;100991.81;5048485;27;64837;-38
2021/09/06 01:59:43;;;;;;;6.25;5.68;;;;;;;29.76;67.32;100996.38;5020127;27;69788;-38
2021/09/06 02:02:53;;;;;;;3.20;3.00;;;;;;;29.94;64.45;100998.41;5072076;27;66360;-38
2021/09/06 02:05:48;;;;;;;4.40;3.45;;;;;;;29.91;65.32;101003.41;5072298;27;69744;-39
2021/09/06 02:08:59;;;;;;;3.70;3.40;;;;;;;29.95;65.17;101007.34;5074522;27;66264;-38
2021/09/06 02:12:13;;;;;;;3.88;3.58;;;;;;;29.89;65.12;100994.66;5071274;27;69977;-38
2021/09/06 02:15:26;;;;;;;5.25;3.35;;;;;;;29.92;66.40;100991.53;5055278;27;66671;-37
2021/09/06 02:18:22;;;;;;;3.30;3.10;;;;;;;30.10;64.76;100994.41;5025584;28;69524;-38
2021/09/06 02:21:07;;;;;;;4.43;3.47;;;;;;;29.80;65.06;100951.63;5057378;27;66301;-38
2021/09/06 02:24:13;;;;;;;3.80;3.50;;;;;;;30.08;65.26;101001.91;5041071;27;70104;-37
2021/09/06 02:27:31;;;;;;;3.83;3.10;;;;;;;30.12;64.91;100988.81;5046482;27;66286;-38
2021/09/06 02:30:24;;;;;;;5.78;3.60;;;;;;;30.31;63.74;100979.78;5054376;27;69547;-37
2021/09/06 02:33:06;;;;;;;4.13;3.20;;;;;;;30.24;64.18;100990.66;5031571;27;66226;-38
2021/09/06 02:36:23;;;;;;;3.58;3.00;;;;;;;30.27;63.81;100982.09;5068353;27;70254;-39
2021/09/06 02:39:46;;;;;;;3.03;2.83;;;;;;;30.15;63.67;100978.38;5056346;27;66714;-37
2021/09/06 02:42:35;;;;;;;3.10;2.80;;;;;;;30.28;66.19;100982.94;5039493;27;69652;-37
2021/09/06 02:45:18;;;;;;;2.10;2.00;;;;;;;30.33;64.52;100979.59;5044540;28;67025;-36
2021/09/06 02:48:04;;;;;;;;;;;;;;;30.08;65.58;100984.84;5022161;28;70206;-37
2021/09/06 02:50:57;;;;;;;1.90;1.80;;;;;;;30.24;64.48;100966.31;5059168;27;66339;-37
2021/09/06 02:54:00;;;;;;;1.95;1.85;;;;;;;30.34;64.09;100984.81;5058645;27;69856;-37
2021/09/06 02:57:00;;;;;;;1.85;1.75;;;;;;;30.49;64.41;100976.41;5077823;27;66350;-37
2021/09/06 03:00:35;;;;;;;3.08;1.63;;;;;;;30.51;63.81;100977.03;5073847;27;70419;-39
2021/09/06 03:03:21;;;;;;;2.45;2.22;;;;;;;30.59;63.58;100974.06;5078931;27;65213;-37
2021/09/06 03:06:18;;;;;;;2.35;1.75;;;;;;;30.58;63.54;100980.50;5082609;27;70925;-37
2021/09/06 03:09:02;;;;;;;1.50;1.40;;;;;;;30.67;63.79;100976.53;5037755;27;66406;-38
2021/09/06 03:12:29;;;;;;;1.38;1.27;;;;;;;30.70;63.58;100967.97;5072561;27;70417;-38
2021/09/06 03:15:13;;;;;;;1.70;1.60;;;;;;;30.76;63.62;100973.53;5078712;27;65696;-38
2021/09/06 03:18:05;;;;;;;1.20;1.10;;;;;;;30.81;63.68;100973.75;5074650;27;69328;-38
2021/09/06 03:21:03;;;;;;;1.70;1.60;;;;;;;30.81;63.55;100969.16;5049700;27;65653;-38
2021/09/06 03:23:43;;;;;;;1.50;1.40;;;;;;;30.63;63.50;100923.03;5075941;27;69694;-38
2021/09/06 03:26:32;;;;;;;1.95;1.40;;;;;;;30.90;63.43;100961.63;5064107;28;65487;-38
2021/09/06 03:29:09;;;;;;;1.70;1.50;;;;;;;30.92;63.36;100963.06;5073718;27;70229;-37
2021/09/06 03:32:11;;;;;;;1.70;1.58;;;;;;;30.98;63.43;100968.66;5076841;27;66729;-37
2021/09/06 03:34:50;;;;;;;1.80;1.70;;;;;;;31.01;62.89;100963.63;5066489;27;70547;-37
2021/09/06 03:37:32;;;;;;;1.90;1.50;;;;;;;31.03;63.36;100955.28;5070772;27;66948;-36
2021/09/06 03:40:11;;;;;;;1.20;1.10;;;;;;;31.07;62.86;100957.34;5045681;27;70209;-37
2021/09/06 03:42:49;;;;;;;2.00;1.45;;;;;;;31.10;62.84;100945.22;5065223;27;64885;-38
2021/09/06 03:45:27;;;;;;;1.60;1.42;;;;;;;31.10;63.19;100945.22;5073069;27;69830;-36
2021/09/06 03:48:12;;;;;;;4.97;1.20;;;;;;;31.13;62.86;100934.78;5090778;27;66691;-37
2021/09/06 03:50:54;;;;;;;2.75;1.52;;;;;;;31.13;62.96;100926.66;5058698;27;70241;-38
2021/09/06 03:53:31;;;;;;;1.50;1.38;;;;;;;31.16;62.90;100928.91;5044009;27;67267;-38
2021/09/06 03:56:04;;;;;;;2.35;1.60;;;;;;;31.22;62.78;100921.78;5060438;27;70060;-38
2021/09/06 03:58:45;;;;;;;1.75;1.50;;;;;;;31.23;62.80;100922.59;5055794;27;68604;-38
2021/09/06 04:01:32;;;;;;;1.92;1.42;;;;;;;31.25;62.78;100928.63;5072294;27;70179;-38
2021/09/06 04:04:12;;;;;;;1.70;1.50;;;;;;;31.27;62.52;100931.97;5075209;27;65233;-38
2021/09/06 04:06:48;;;;;;;1.70;1.50;;;;;;;31.28;62.71;100937.13;5074761;27;70525;-39
2021/09/06 04:09:29;;;;;;;2.17;1.90;;;;;;;31.28;62.38;100931.72;5064254;27;65717;-38
2021/09/06 04:12:06;;;;;;;1.50;1.40;;;;;;;31.32;62.75;100934.84;5058863;27;68606;-36
2021/09/06 04:14:41;;;;;;;2.55;1.50;;;;;;;31.29;62.76;100910.91;5074674;27;65833;-37
2021/09/06 04:17:14;;;;;;;2.40;1.50;;;;;;;31.29;62.67;100913.59;5073195;27;69754;-38
2021/09/06 04:19:49;;;;;;;1.50;1.40;;;;;;;31.36;62.32;100923.34;5070207;27;66451;-37
2021/09/06 04:22:24;;;;;;;1.70;1.60;;;;;;;31.36;62.89;100911.69;5041323;28;69572;-38
2021/09/06 04:25:02;;;;;;;2.35;1.55;;;;;;;31.15;62.44;100869.53;5091563;27;66411;-37
2021/09/06 04:27:36;;;;;;;5.18;1.73;;;;;;;31.40;62.91;100907.47;5075234;27;70941;-38
2021/09/06 04:30:16;;;;;;;4.25;1.90;;;;;;;31.43;62.66;100900.78;5072018;27;66599;-37
2021/09/06 04:32:50;;;;;;;9.38;2.00;;;;;;;31.38;62.63;100890.59;5047276;27;69276;-37
2021/09/06 04:35:23;;;;;;;4.50;2.50;;;;;;;31.43;62.78;100890.78;5080008;27;65263;-37
2021/09/06 04:37:58;;;;;;;7.05;2.28;;;;;;;31.46;62.75;100890.31;5075470;27;70092;-37
2021/09/06 04:40:34;;;;;;;4.07;2.00;;;;;;;31.39;63.20;100870.56;5071095;27;66154;-38
2021/09/06 04:43:07;;;;;;;6.25;2.70;;;;;;;31.46;62.92;100868.63;5073518;27;70126;-37
2021/09/06 04:45:44;;;;;;;3.55;1.77;;;;;;;31.44;62.71;100859.88;5081372;27;66775;-37
2021/09/06 04:48:17;;;;;;;5.38;1.92;;;;;;;31.48;62.80;100855.69;5075471;27;69740;-38
2021/09/06 04:50:52;;;;;;;10.10;2.17;;;;;;;31.50;62.76;100856.25;5047391;27;67248;-37
2021/09/06 04:53:28;;;;;;;3.75;1.90;;;;;;;31.54;62.46;100854.78;5081543;27;69901;-38
2021/09/06 04:56:02;;;;;;;3.10;2.03;;;;;;;31.43;62.81;100831.13;5078303;27;65567;-37
2021/09/06 04:58:40;;;;;;;2.70;1.80;;;;;;;31.56;62.57;100852.66;5078336;27;70182;-38
2021/09/06 05:01:13;;;;;;;2.83;1.60;;;;;;;31.53;62.60;100828.69;5072806;27;66545;-38
2021/09/06 05:03:47;;;;;;;3.45;1.80;;;;;;;31.59;62.63;100841.38;5081451;27;69261;-37
2021/09/06 05:06:19;;;;;;;3.75;1.70;;;;;;;31.60;62.70;100829.47;5078653;27;66824;-38
2021/09/06 05:08:52;;;;;;;3.97;1.80;;;;;;;31.63;62.79;100817.34;5075620;27;69438;-39
2021/09/06 05:11:30;;;;;;;3.53;1.95;;;;;;;31.66;63.11;100807.94;5076965;27;66126;-38
2021/09/06 05:14:03;;;;;;;2.65;2.13;;;;;;;31.68;63.06;100794.94;5078344;27;69691;-38
2021/09/06 05:16:36;;;;;;;4.70;1.77;;;;;;;31.81;61.23;100800.22;5080206;27;65866;-39
2021/09/06 05:19:08;;;;;;;4.65;2.10;;;;;;;31.68;59.79;100779.53;5055855;27;70213;-39
2021/09/06 05:21:40;;;;;;;;;;;;;;;31.30;60.44;100783.28;5074553;27;66503;-40
2021/09/06 05:24:12;;;;;;;2.63;1.67;;;;;;;31.36;58.86;100781.56;5072664;27;70497;-38
2021/09/06 05:26:45;;;;;;;2.47;1.67;;;;;;;31.27;57.89;100772.06;5077568;27;66192;-38
2021/09/06 05:29:17;;;;;;;2.58;1.92;;;;;;;31.20;57.53;100768.59;5079138;27;70149;-37
2021/09/06 05:31:50;;;;;;;17.27;2.08;;;;;;;30.95;57.34;100758.63;5074074;27;66654;-37
2021/09/06 05:34:23;;;;;;;6.43;1.92;;;;;;;30.94;56.24;100762.41;5081226;27;70422;-37
2021/09/06 05:36:56;;;;;;;10.25;1.90;;;;;;;30.97;56.07;100763.84;5078285;27;66538;-38
2021/09/06 05:39:29;;;;;;;7.70;2.30;;;;;;;30.93;55.69;100760.75;5062907;27;70153;-37
2021/09/06 05:42:04;;;;;;;3.40;1.83;;;;;;;30.92;54.51;100756.38;5074583;27;65387;-38
2021/09/06 05:44:38;;;;;;;10.05;2.05;;;;;;;30.89;53.71;100748.69;5076044;27;69533;-38
2021/09/06 05:47:13;;;;;;;3.53;1.42;;;;;;;30.86;53.11;100741.00;5063003;27;66336;-39
2021/09/06 05:49:48;;;;;;;10.57;1.65;;;;;;;30.81;52.21;100730.03;5075548;27;70258;-39
2021/09/06 05:52:21;;;;;;;9.55;1.95;;;;;;;30.80;52.33;100722.97;5097034;27;66609;-38
2021/09/06 05:54:58;;;;;;;6.90;1.40;;;;;;;30.73;51.60;100707.59;5079262;27;69944;-38
2021/09/06 05:57:32;;;;;;;3.10;1.50;;;;;;;30.73;51.57;100699.47;5075185;27;66330;-37
2021/09/06 06:00:06;;;;;;;4.75;1.67;;;;;;;30.67;50.26;100686.81;5082332;27;70553;-37
2021/09/06 06:02:49;;;;;;;4.47;1.27;;;;;;;30.67;50.48;100686.81;5081478;27;65919;-37
2021/09/06 06:05:22;;;;;;;2.97;1.30;;;;;;;30.66;50.03;100676.19;5077940;27;69533;-37
2021/09/06 06:07:56;;;;;;;3.22;1.48;;;;;;;30.63;49.02;100658.53;5069113;27;66321;-37
2021/09/06 06:10:29;;;;;;;4.88;1.40;;;;;;;30.64;48.28;100662.88;5087209;27;69945;-37
2021/09/06 06:13:02;;;;;;;1.48;1.38;;;;;;;30.64;48.89;100654.75;5070599;27;65894;-37
2021/09/06 06:15:35;;;;;;;3.45;1.30;;;;;;;30.63;47.96;100644.97;5080565;27;70406;-37
2021/09/06 06:18:33;;;;;;;3.10;0.93;;;;;;;30.64;47.76;100648.50;5073137;27;66473;-37
2021/09/06 06:21:07;;;;;;;1.30;1.20;;;;;;;30.61;48.08;100622.72;5081745;27;69313;-37
2021/09/06 06:23:56;;;;;;;2.60;1.30;;;;;;;30.58;47.16;100620.47;5074695;27;66555;-37
2021/09/06 06:26:43;;;;;;;1.75;1.40;;;;;;;30.64;47.09;100622.25;5083629;27;69851;-38
2021/09/06 06:29:17;;;;;;;3.22;1.05;;;;;;;30.62;46.87;100623.53;5078930;27;66913;-37
2021/09/06 06:31:53;;;;;;;2.88;1.67;;;;;;;30.58;46.34;100612.34;5082534;27;69615;-37
2021/09/06 06:34:28;;;;;;;1.60;1.45;;;;;;;30.56;46.44;100609.03;5048382;27;65184;-36
2021/09/06 06:37:02;;;;;;;1.50;1.20;;;;;;;30.60;46.37;100612.94;5076541;27;69493;-36
2021/09/06 06:39:36;;;;;;;1.77;1.20;;;;;;;30.50;45.54;100594.50;5070694;27;66519;-38
2021/09/06 06:42:14;;;;;;;1.15;1.00;;;;;;;30.60;45.75;100598.59;5072462;27;71251;-38
2021/09/06 06:44:56;;;;;;;1.15;1.02;;;;;;;30.55;45.92;100591.13;5028501;27;66350;-37
2021/09/06 06:47:34;;;;;;;3.35;1.30;;;;;;;30.56;45.65;100591.97;5076607;27;70247;-38
2021/09/06 06:50:08;;;;;;;1.60;1.30;;;;;;;30.55;45.41;100591.13;5080910;27;65549;-38
2021/09/06 06:52:54;;;;;;;1.05;0.90;;;;;;;30.57;45.37;100583.63;5067252;27;70098;-37
2021/09/06 06:55:34;;;;;;;1.60;1.40;;;;;;;30.47;45.20;100561.66;5064179;27;67318;-38
2021/09/06 06:58:08;;;;;;;3.45;1.30;;;;;;;30.55;45.10;100577.59;5035575;28;70459;-37
2021/09/06 07:00:45;;;;;;;1.20;1.10;;;;;;;30.55;44.53;100580.31;5067993;27;65967;-38
2021/09/06 07:03:26;;;;;;;1.50;1.20;;;;;;;30.52;44.94;100575.34;5057381;27;68604;-36
2021/09/06 07:06:04;;;;;;;2.65;1.23;;;;;;;30.51;44.48;100573.72;5056639;27;66182;-36
2021/09/06 07:08:43;;;;;;;2.40;1.02;;;;;;;30.53;44.79;100559.94;5045869;27;70418;-38
2021/09/06 07:11:20;;;;;;;3.35;1.08;;;;;;;30.51;45.03;100557.47;5058403;27;66158;-36
2021/09/06 07:13:58;;;;;;;5.03;1.40;;;;;;;30.32;44.67;100517.94;5078792;27;69813;-36
2021/09/06 07:16:39;;;;;;;2.03;1.30;;;;;;;30.20;44.84;100502.41;5052901;27;65743;-37
2021/09/06 07:19:22;;;;;;;1.55;1.30;;;;;;;30.51;44.35;100552.06;5053370;27;70064;-37
2021/09/06 07:21:55;;;;;;;4.63;1.25;;;;;;;30.49;44.24;100554.16;5059089;27;67021;-38
2021/09/06 07:24:44;;;;;;;1.52;1.35;;;;;;;30.46;44.46;100544.59;5059250;27;70242;-38
2021/09/06 07:27:17;;;;;;;1.73;1.63;;;;;;;30.45;44.46;100537.53;5059390;27;66456;-37
2021/09/06 07:30:08;;;;;;;1.63;1.25;;;;;;;30.51;44.41;100543.94;5075078;27;69972;-37
2021/09/06 07:32:56;;;;;;;2.92;1.40;;;;;;;30.49;43.81;100554.16;5079878;27;64874;-37
2021/09/06 07:35:34;;;;;;;9.38;1.90;;;;;;;30.49;43.86;100554.16;5058402;27;69420;-41
2021/09/06 07:38:12;;;;;;;2.13;1.88;;;;;;;30.50;44.44;100555.78;5071656;27;66445;-38
2021/09/06 07:40:46;;;;;;;3.42;1.90;;;;;;;30.48;43.54;100542.50;5052459;27;70284;-38
2021/09/06 07:43:20;;;;;;;4.35;1.35;;;;;;;30.50;43.69;100544.97;5072307;27;65218;-37
2021/09/06 07:46:00;;;;;;;1.70;1.60;;;;;;;30.50;43.51;100536.84;5070927;27;70324;-38
2021/09/06 07:48:41;;;;;;;8.27;1.58;;;;;;;30.46;45.00;100524.84;5059968;27;66165;-38
2021/09/06 07:51:28;;;;;;;2.10;1.90;;;;;;;30.60;45.63;100534.44;5073035;27;70234;-39
2021/09/06 07:54:06;;;;;;;1.95;1.85;;;;;;;30.75;47.23;100525.09;5054347;28;66352;-38
2021/09/06 07:57:01;;;;;;;2.95;2.00;;;;;;;30.81;47.91;100521.50;5073191;27;69909;-36
2021/09/06 07:59:47;;;;;;;8.82;1.80;;;;;;;30.92;48.77;100515.31;5045628;27;66173;-37
2021/09/06 08:02:42;;;;;;;5.57;2.42;;;;;;;31.06;49.29;100530.31;5072758;27;70422;-37
2021/09/06 08:05:37;;;;;;;10.68;2.60;;;;;;;31.20;49.36;100522.00;5072905;27;66092;-36
2021/09/06 08:08:19;;;;;;;5.20;2.30;;;;;;;31.30;50.32;100516.88;5078111;27;70230;-37
2021/09/06 08:10:57;;;;;;;3.97;2.33;;;;;;;31.37;51.61;100513.03;5041458;27;67086;-37
2021/09/06 08:13:40;;;;;;;3.50;2.78;;;;;;;31.50;53.46;100511.97;5054536;27;69399;-36
2021/09/06 08:16:15;;;;;;;2.80;2.60;;;;;;;31.57;54.83;100507.28;5058606;27;65782;-38
2021/09/06 08:18:56;;;;;;;3.47;3.15;;;;;;;31.63;55.50;100510.94;5071968;27;68640;-36
2021/09/06 08:21:32;;;;;;;3.70;3.40;;;;;;;31.69;57.05;100501.03;5073794;27;66356;-37
2021/09/06 08:24:14;;;;;;;5.55;2.83;;;;;;;31.83;56.60;100510.59;5085628;27;70221;-38
2021/09/06 08:26:52;;;;;;;7.63;3.40;;;;;;;31.90;56.93;100511.31;5072591;27;66209;-38
2021/09/06 08:29:34;;;;;;;4.93;3.80;;;;;;;32.04;57.31;100507.31;5083170;27;70306;-38
2021/09/06 08:32:16;;;;;;;7.53;3.53;;;;;;;32.05;58.07;100497.28;5074613;27;65352;-38
2021/09/06 08:34:54;;;;;;;9.85;3.20;;;;;;;32.13;58.16;100504.25;5063736;27;69328;-38
2021/09/06 08:37:40;;;;;;;6.47;3.42;;;;;;;31.89;59.04;100476.28;5059171;27;65157;-37
2021/09/06 08:40:25;;;;;;;5.20;3.33;;;;;;;32.17;59.12;100513.56;5075566;27;69383;-38
2021/09/06 08:43:05;;;;;;;4.72;3.38;;;;;;;32.20;59.50;100505.75;5058503;27;66976;-37
2021/09/06 08:45:41;;;;;;;3.80;3.33;;;;;;;32.23;59.58;100504.44;5064433;27;70107;-38
2021/09/06 08:48:14;;;;;;;3.60;3.30;;;;;;;32.17;60.13;100500.00;5040872;28;65607;-37
2021/09/06 08:50:54;;;;;;;5.55;3.65;;;;;;;32.16;60.53;100504.59;5081327;27;69643;-37
2021/09/06 08:53:29;;;;;;;6.93;3.40;;;;;;;32.19;61.41;100514.16;5090778;27;65968;-36
2021/09/06 08:56:04;;;;;;;5.65;2.90;;;;;;;32.25;62.30;100514.00;5056459;28;70178;-38
2021/09/06 08:59:00;;;;;;;6.47;4.75;;;;;;;32.51;60.48;100517.28;5058646;27;65739;-39
2021/09/06 09:01:48;;;;;;;5.60;5.05;;;;;;;32.49;60.84;100522.97;5079434;27;70004;-38
2021/09/06 09:05:03;;;;;;;4.75;4.35;;;;;;;32.30;60.97;100488.88;5067771;27;65889;-38
2021/09/06 09:07:58;;;;;;;;;;;;;;;32.01;62.55;100515.09;5087454;27;69392;-38
2021/09/06 09:10:56;;;;;;;8.05;6.18;;;;;;;32.19;60.74;100514.16;5064858;27;67366;-38
2021/09/06 09:13:57;;;;;;;4.75;4.30;;;;;;;32.21;61.85;100512.84;5084317;27;70724;-38
2021/09/06 09:16:33;;;;;;;7.15;4.82;;;;;;;32.25;61.89;100513.19;5064175;27;65391;-38
2021/09/06 09:19:24;;;;;;;5.63;5.13;;;;;;;32.24;61.72;100503.41;5079637;27;69275;-38
2021/09/06 09:22:40;;;;;;;8.53;6.90;;;;;;;32.01;60.75;100464.41;5067168;27;66718;-38
2021/09/06 09:25:34;;;;;;;7.07;6.18;;;;;;;32.10;60.79;100483.03;5089085;27;70072;-38
2021/09/06 09:28:31;;;;;;;7.13;6.45;;;;;;;32.33;59.49;100509.28;5087960;27;66747;-38
2021/09/06 09:31:23;;;;;;;6.43;6.03;;;;;;;32.35;60.50;100510.69;5074723;27;69298;-38
2021/09/06 09:34:21;;;;;;;8.30;6.63;;;;;;;32.39;61.10;100517.28;5062305;27;66642;-38
2021/09/06 09:37:10;;;;;;;7.68;7.07;;;;;;;32.41;60.92;100526.03;5063551;27;69513;-38
2021/09/06 09:39:58;;;;;;;8.68;7.75;;;;;;;32.35;59.12;100491.69;5083545;27;66731;-37
2021/09/06 09:42:44;;;;;;;9.07;7.65;;;;;;;32.60;58.90;100536.78;5082438;27;70537;-38
2021/09/06 09:45:26;;;;;;;9.70;8.75;;;;;;;32.52;58.64;100523.56;5080763;27;66186;-37
2021/09/06 09:48:17;;;;;;;8.75;8.07;;;;;;;32.50;59.76;100526.50;5046623;27;70139;-38
2021/09/06 09:50:54;;;;;;;9.82;8.93;;;;;;;32.47;58.50;100527.81;5073369;27;65273;-38
2021/09/06 09:53:47;;;;;;;9.82;8.95;;;;;;;32.41;57.17;100520.59;5064350;27;69456;-38
2021/09/06 09:56:22;;;;;;;9.15;8.55;;;;;;;32.37;57.11;100516.69;5078575;27;66589;-38
2021/09/06 09:59:02;;;;;;;9.93;9.05;;;;;;;32.42;57.00;100524.94;5078036;27;70548;-38
2021/09/06 10:01:41;;;;;;;9.88;9.15;;;;;;;32.38;57.93;100523.78;5090620;27;65804;-38
2021/09/06 10:04:20;;;;;;;9.95;8.95;;;;;;;32.44;57.76;100535.59;5085960;27;70248;-38
2021/09/06 10:06:59;;;;;;;9.85;9.00;;;;;;;32.43;59.27;100540.19;5078233;27;66001;-39
2021/09/06 10:09:53;;;;;;;14.23;10.10;;;;;;;32.32;60.26;100542.91;5080987;27;69593;-37
2021/09/06 10:12:29;;;;;;;13.50;12.10;;;;;;;32.36;60.32;100553.06;5077348;27;66572;-38
2021/09/06 10:15:06;;;;;;;22.13;14.93;;;;;;;32.11;60.21;100509.09;5073983;27;70586;-38
2021/09/06 10:17:49;;;;;;;15.77;14.15;;;;;;;32.33;60.82;100550.81;5078604;27;65576;-37
2021/09/06 10:20:27;;;;;;;22.27;14.30;;;;;;;32.32;60.70;100549.19;5078081;27;70445;-42
2021/09/06 10:23:11;;;;;;;13.52;12.10;;;;;;;32.33;60.47;100552.72;5087129;27;67235;-38
2021/09/06 10:25:46;;;;;;;15.35;12.95;;;;;;;32.19;60.73;100546.72;5059516;27;70066;-38
2021/09/06 10:28:19;;;;;;;15.73;14.00;;;;;;;32.27;61.11;100568.06;5069312;27;66692;-37
2021/09/06 10:30:54;;;;;;;13.65;12.18;;;;;;;32.24;61.02;100577.50;5090048;27;70212;-38
2021/09/06 10:33:32;;;;;;;14.50;12.68;;;;;;;32.26;61.36;100569.13;5079728;27;66247;-39
2021/09/06 10:36:35;;;;;;;14.00;11.40;;;;;;;32.18;62.12;100572.19;5080771;27;69661;-38
2021/09/06 10:39:11;;;;;;;13.40;11.63;;;;;;;32.23;61.81;100569.59;5080189;27;65395;-37
2021/09/06 10:41:47;;;;;;;13.73;12.25;;;;;;;32.21;61.43;100560.88;5082582;27;70532;-38
2021/09/06 10:44:25;;;;;;;13.35;12.07;;;;;;;32.03;61.53;100538.22;5074888;27;65630;-38
2021/09/06 10:47:05;;;;;;;14.48;12.25;;;;;;;32.23;61.79;100580.44;5077739;27;69853;-38
2021/09/06 10:49:43;;;;;;;14.60;11.98;;;;;;;31.94;61.91;100528.78;5072728;27;66327;-38
2021/09/06 10:52:16;;;;;;;13.13;11.82;;;;;;;32.19;61.81;100579.28;5088161;27;70024;-38
2021/09/06 10:54:51;;;;;;;13.07;12.00;;;;;;;32.20;61.74;100575.50;5082404;27;65424;-39
2021/09/06 10:57:30;;;;;;;12.25;11.13;;;;;;;32.20;61.51;100578.22;5085130;27;70224;-37
2021/09/06 11:00:04;;;;;;;17.50;11.95;;;;;;;32.15;61.85;100584.38;5086352;27;66782;-37
2021/09/06 11:02:41;;;;;;;12.45;11.55;;;;;;;32.18;61.97;100577.59;5066716;27;70392;-38
2021/09/06 11:05:25;;;;;;;11.15;10.35;;;;;;;32.15;61.78;100584.38;5074253;27;66202;-38
2021/09/06 11:08:07;;;;;;;12.80;11.60;;;;;;;32.15;61.53;100583.50;5078083;27;69298;-37
2021/09/06 11:10:44;;;;;;;15.57;11.00;;;;;;;32.07;60.57;100581.16;5069661;27;66693;-37
2021/09/06 11:13:17;;;;;;;13.48;12.23;;;;;;;32.02;60.08;100595.44;5072153;27;69950;-38
2021/09/06 11:15:51;;;;;;;11.82;10.82;;;;;;;31.98;59.76;100603.22;5069925;27;66739;-38
2021/09/06 11:18:34;;;;;;;11.98;10.88;;;;;;;31.95;59.87;100595.53;5061949;27;69896;-37
2021/09/06 11:21:07;;;;;;;;;;;;;;;31.66;60.33;100601.84;5077312;27;66630;-37
2021/09/06 11:23:46;;;;;;;11.63;10.82;;;;;;;31.61;59.48;100576.22;5080222;27;69305;-38
2021/09/06 11:26:38;;;;;;;11.30;10.40;;;;;;;31.75;59.78;100622.13;5077572;27;66352;-37
2021/09/06 11:29:13;;;;;;;11.70;10.50;;;;;;;31.78;59.81;100624.38;5058521;27;69933;-38
2021/09/06 11:31:50;;;;;;;11.88;10.90;;;;;;;31.55;59.04;100598.03;5080054;27;66414;-38
2021/09/06 11:34:26;;;;;;;11.05;9.95;;;;;;;31.73;59.30;100638.66;5073679;27;70087;-38
2021/09/06 11:37:10;;;;;;;11.32;10.35;;;;;;;31.68;59.09;100632.25;5078394;27;66532;-37
2021/09/06 11:39:46;;;;;;;14.55;10.50;;;;;;;31.72;59.20;100652.44;5076222;27;70171;-38
2021/09/06 11:42:19;;;;;;;11.60;10.65;;;;;;;31.70;59.25;100657.25;5082883;27;66185;-38
2021/09/06 11:44:52;;;;;;;11.25;10.20;;;;;;;31.69;59.54;100652.91;5082584;27;69947;-37
2021/09/06 11:47:25;;;;;;;14.20;11.38;;;;;;;31.67;59.58;100663.13;5080198;27;66654;-36
2021/09/06 11:50:00;;;;;;;12.88;11.57;;;;;;;31.68;60.04;100648.50;5072494;27;70927;-37
2021/09/06 11:52:41;;;;;;;11.52;10.50;;;;;;;31.55;60.12;100649.56;5079408;27;64859;-37
2021/09/06 11:55:20;;;;;;;12.73;11.70;;;;;;;31.43;59.93;100624.28;5080612;27;68480;-37
2021/09/06 11:57:53;;;;;;;12.70;11.50;;;;;;;31.67;60.37;100665.84;5067429;27;66411;-37
2021/09/06 12:00:27;;;;;;;12.40;11.40;;;;;;;31.68;60.40;100670.22;5079390;27;69248;-37
2021/09/06 12:03:00;;;;;;;11.85;10.88;;;;;;;31.63;60.38;100670.91;5075642;27;66170;-37
2021/09/06 12:05:53;;;;;;;13.77;12.43;;;;;;;31.60;61.02;100680.34;5081433;27;69882;-37
2021/09/06 12:08:31;;;;;;;12.88;11.68;;;;;;;31.60;60.29;100680.34;5083714;27;66399;-37
2021/09/06 12:11:13;;;;;;;12.68;11.52;;;;;;;31.58;60.54;100687.88;5079045;27;70244;-37
2021/09/06 12:13:58;;;;;;;13.23;11.20;;;;;;;31.54;61.72;100675.03;5082155;27;67179;-37
2021/09/06 12:16:31;;;;;;;11.55;10.60;;;;;;;31.66;61.84;100694.03;5076457;27;70437;-37
2021/09/06 12:19:23;;;;;;;18.85;12.60;;;;;;;31.64;62.50;100682.59;5073008;27;66773;-38
2021/09/06 12:21:57;;;;;;;20.55;11.52;;;;;;;31.68;62.65;100691.91;5082235;27;69427;-38
2021/09/06 12:24:29;;;;;;;23.45;12.15;;;;;;;31.69;63.27;100699.81;5086189;27;66756;-37
2021/09/06 12:27:11;;;;;;;16.70;12.18;;;;;;;31.60;63.28;100669.50;5089646;27;69354;-38
2021/09/06 12:29:45;;;;;;;19.15;10.82;;;;;;;31.80;63.37;100706.34;5075679;27;65493;-37
2021/09/06 12:32:24;;;;;;;17.73;8.73;;;;;;;31.80;63.49;100717.19;5064773;27;70630;-39